createdAt,value
2022-09-20T00:14:02.742Z,17.90
2022-09-20T00:29:07.798Z,17.60
2022-09-20T00:44:44.366Z,17.20
2022-09-20T00:59:51.636Z,17.20
2022-09-20T01:14:58.207Z,17.50
2022-09-20T01:30:07.675Z,17.20
2022-09-20T01:45:17.971Z,17.30
2022-09-20T02:00:24.871Z,17.40
2022-09-20T02:16:18.998Z,17.50
2022-09-20T02:31:34.629Z,16.20
2022-09-20T02:46:47.593Z,16.80
2022-09-20T03:02:02.226Z,16.70
2022-09-20T03:17:20.138Z,17.00
2022-09-20T03:32:37.229Z,16.80
2022-09-20T03:48:07.483Z,16.80
2022-09-20T04:03:34.447Z,16.60
2022-09-20T04:18:44.312Z,16.60
2022-09-20T04:33:51.488Z,16.70
2022-09-20T04:49:27.477Z,16.60
2022-09-20T05:05:08.118Z,16.20
2022-09-20T05:20:36.857Z,16.40
2022-09-20T05:35:47.388Z,16.20
2022-09-20T05:50:59.532Z,16.30
2022-09-20T06:06:14.952Z,16.60
2022-09-20T06:21:30.384Z,16.80
2022-09-20T06:36:55.303Z,16.90
2022-09-20T06:51:59.629Z,16.40
2022-09-20T07:07:08.697Z,16.50
2022-09-20T07:22:14.467Z,15.90
2022-09-20T07:37:19.901Z,15.30
2022-09-20T07:52:24.308Z,15.70
2022-09-20T08:07:29.906Z,16.20
2022-09-20T08:22:34.794Z,16.70
2022-09-20T08:37:39.215Z,16.10
2022-09-20T08:52:45.804Z,17.10
2022-09-20T09:07:50.156Z,17.30
2022-09-20T09:23:03.164Z,17.30
2022-09-20T09:38:18.111Z,17.50
2022-09-20T09:53:24.721Z,16.80
2022-09-20T10:08:38.555Z,17.70
2022-09-20T10:24:04.720Z,17.90
2022-09-20T10:39:14.712Z,18.30
2022-09-20T10:54:35.953Z,17.50
2022-09-20T11:09:44.694Z,18.70
2022-09-20T11:24:53.583Z,18.20
2022-09-20T11:40:02.255Z,18.70
2022-09-20T11:55:28.085Z,19.30
2022-09-20T12:10:35.247Z,18.60
2022-09-20T12:25:41.111Z,18.40
2022-09-20T12:56:25.328Z,18.50
2022-09-20T13:11:36.124Z,19.00
2022-09-20T13:26:45.402Z,20.00
2022-09-20T13:41:50.505Z,20.80
2022-09-20T13:56:57.368Z,21.60
2022-09-20T14:12:03.167Z,22.70
2022-09-20T14:27:18.032Z,23.90
2022-09-20T14:42:29.626Z,26.30
2022-09-20T14:57:34.204Z,22.30
2022-09-20T15:12:38.994Z,22.30
2022-09-20T15:27:44.430Z,23.20
2022-09-20T15:42:48.768Z,21.50
2022-09-20T15:57:53.116Z,21.50
2022-09-20T16:12:57.563Z,21.40
2022-09-20T16:28:01.998Z,20.80
2022-09-20T16:43:08.721Z,20.70
2022-09-20T16:58:13.008Z,20.30
2022-09-20T17:13:17.728Z,19.90
2022-09-20T17:28:22.026Z,19.90
2022-09-20T17:43:27.112Z,20.20
2022-09-20T17:58:34.449Z,20.00
2022-09-20T18:13:39.096Z,19.90
2022-09-20T18:28:48.681Z,19.90
2022-09-20T18:43:54.409Z,19.40
2022-09-20T18:59:01.499Z,19.60
2022-09-20T19:14:11.771Z,19.50
2022-09-20T19:29:22.400Z,19.20
2022-09-20T19:44:34.679Z,19.30
2022-09-20T19:59:39.459Z,19.40
2022-09-20T20:14:55.537Z,19.20
2022-09-20T20:30:00.275Z,19.10
2022-09-20T20:45:05.859Z,19.00
2022-09-20T21:00:11.680Z,19.00
2022-09-20T21:15:17.060Z,19.00
2022-09-20T21:30:21.439Z,18.80
2022-09-20T21:45:27.917Z,18.80
2022-09-20T22:00:33.207Z,18.50
2022-09-20T22:15:37.864Z,18.60
2022-09-20T22:30:42.278Z,18.60
2022-09-20T22:45:46.726Z,18.50
2022-09-20T23:00:51.203Z,18.40
2022-09-20T23:15:56.773Z,18.40
2022-09-20T23:31:04.902Z,18.30
2022-09-20T23:46:10.230Z,18.20
